createdAt,value
2022-11-01T00:01:51.130Z,72.34
2022-11-01T00:04:19.096Z,76.00
2022-11-01T00:06:46.453Z,71.30
2022-11-01T00:09:13.707Z,74.25
2022-11-01T00:11:41.084Z,70.23
2022-11-01T00:14:08.451Z,73.40
2022-11-01T00:16:35.678Z,72.12
2022-11-01T00:19:02.932Z,70.49
2022-11-01T00:21:30.174Z,72.66
2022-11-01T00:23:57.332Z,72.30
2022-11-01T00:26:25.158Z,72.99
2022-11-01T00:28:53.060Z,70.92
2022-11-01T00:31:21.032Z,70.32
2022-11-01T00:33:48.299Z,69.26
2022-11-01T00:36:15.909Z,69.75
2022-11-01T00:38:43.321Z,73.49
2022-11-01T00:41:10.899Z,72.47
2022-11-01T00:43:38.127Z,71.89
2022-11-01T00:46:05.551Z,73.42
2022-11-01T00:48:32.960Z,72.69
2022-11-01T00:51:00.203Z,72.25
2022-11-01T00:53:30.083Z,72.56
2022-11-01T00:56:01.995Z,65.35
2022-11-01T00:58:29.492Z,63.61
2022-11-01T01:00:57.071Z,71.38
2022-11-01T01:03:24.390Z,66.31
2022-11-01T01:05:53.045Z,72.68
2022-11-01T01:08:21.161Z,68.53
2022-11-01T01:10:48.682Z,69.40
2022-11-01T01:13:16.266Z,67.69
2022-11-01T01:15:44.078Z,72.97
2022-11-01T01:18:11.548Z,70.25
2022-11-01T01:20:38.861Z,70.84
2022-11-01T01:23:06.207Z,73.00
2022-11-01T01:25:33.444Z,70.17
2022-11-01T01:28:01.145Z,70.37
2022-11-01T01:30:28.708Z,70.85
2022-11-01T01:32:56.063Z,66.33
2022-11-01T01:35:23.427Z,70.31
2022-11-01T01:37:50.838Z,72.32
2022-11-01T01:40:18.179Z,68.05
2022-11-01T01:42:47.195Z,72.03
2022-11-01T01:45:17.167Z,68.25
2022-11-01T01:47:47.235Z,70.62
2022-11-01T01:50:57.291Z,68.73
2022-11-01T01:53:30.490Z,70.99
2022-11-01T01:56:01.414Z,69.30
2022-11-01T01:58:34.437Z,70.88
2022-11-01T02:01:01.910Z,64.83
2022-11-01T02:03:33.988Z,68.80
2022-11-01T02:06:18.884Z,66.21
2022-11-01T02:08:58.536Z,72.01
2022-11-01T02:11:25.923Z,71.53
2022-11-01T02:13:53.429Z,67.42
2022-11-01T02:16:47.663Z,67.28
2022-11-01T02:19:43.369Z,69.96
2022-11-01T02:22:31.164Z,68.47
2022-11-01T02:25:01.564Z,68.00
2022-11-01T02:27:44.602Z,68.11
2022-11-01T02:30:15.261Z,65.55
2022-11-01T02:33:03.555Z,68.45
2022-11-01T02:35:41.612Z,68.67
2022-11-01T02:38:19.474Z,68.15
2022-11-01T02:41:00.185Z,67.16
2022-11-01T02:43:34.403Z,64.33
2022-11-01T02:46:23.426Z,70.27
2022-11-01T02:48:51.024Z,68.40
2022-11-01T02:51:20.425Z,69.78
2022-11-01T02:53:47.803Z,64.43
2022-11-01T02:56:17.206Z,66.72
2022-11-01T02:58:46.017Z,67.57
2022-11-01T03:01:17.310Z,66.97
2022-11-01T03:03:46.538Z,66.84
2022-11-01T03:06:22.981Z,67.59
2022-11-01T03:09:02.691Z,67.38
2022-11-01T03:11:39.172Z,65.72
2022-11-01T03:14:27.318Z,67.40
2022-11-01T03:17:00.628Z,67.52
2022-11-01T03:19:45.421Z,66.89
2022-11-01T03:22:19.060Z,67.02
2022-11-01T03:24:55.064Z,66.70
2022-11-01T03:27:39.338Z,67.94
2022-11-01T03:30:07.745Z,67.39
2022-11-01T03:32:44.204Z,66.32
2022-11-01T03:35:17.100Z,66.70
2022-11-01T03:37:45.557Z,67.55
2022-11-01T03:40:15.179Z,65.77
2022-11-01T03:42:46.023Z,68.42
2022-11-01T03:45:14.941Z,66.79
2022-11-01T03:47:42.716Z,67.28
2022-11-01T03:50:18.354Z,67.60
2022-11-01T03:52:46.527Z,68.25
2022-11-01T03:55:18.550Z,66.73
2022-11-01T03:57:46.961Z,67.73
2022-11-01T04:00:16.682Z,67.51
2022-11-01T04:02:43.958Z,67.77
2022-11-01T04:05:11.874Z,68.45
2022-11-01T04:07:39.908Z,68.33
2022-11-01T04:10:07.713Z,68.65
2022-11-01T04:12:35.124Z,66.70
2022-11-01T04:15:21.228Z,67.67
2022-11-01T04:18:07.300Z,67.19
2022-11-01T04:20:34.658Z,67.91
2022-11-01T04:23:06.545Z,66.92
2022-11-01T04:25:34.348Z,67.82
2022-11-01T04:28:01.594Z,67.90
2022-11-01T04:30:30.048Z,67.53
2022-11-01T04:32:57.252Z,67.67
2022-11-01T04:35:24.585Z,67.54
2022-11-01T04:37:59.078Z,67.21
2022-11-01T04:40:26.584Z,66.67
2022-11-01T04:42:53.793Z,67.92
2022-11-01T04:45:21.259Z,66.87
2022-11-01T04:47:52.423Z,68.09
2022-11-01T04:50:22.862Z,66.92
2022-11-01T04:52:50.070Z,67.66
2022-11-01T04:55:17.679Z,66.92
2022-11-01T04:57:44.915Z,66.31
2022-11-01T05:00:13.445Z,67.03
2022-11-01T05:02:41.052Z,67.51
2022-11-01T05:05:09.762Z,67.82
2022-11-01T05:07:37.264Z,66.93
2022-11-01T05:10:05.622Z,67.21
2022-11-01T05:12:33.280Z,67.28
2022-11-01T05:15:00.612Z,66.69
2022-11-01T05:17:27.871Z,67.63
2022-11-01T05:19:55.058Z,68.35
2022-11-01T05:22:22.447Z,67.71
2022-11-01T05:24:49.734Z,67.87
2022-11-01T05:27:17.233Z,68.64
2022-11-01T05:29:44.458Z,68.68
2022-11-01T05:32:11.715Z,68.81
2022-11-01T05:34:38.959Z,69.23
2022-11-01T05:37:06.152Z,69.08
2022-11-01T05:39:33.400Z,68.23
2022-11-01T05:42:02.884Z,67.99
2022-11-01T05:44:30.555Z,69.38
2022-11-01T05:46:57.751Z,68.70
2022-11-01T05:49:25.003Z,68.49
2022-11-01T05:51:52.270Z,68.95
2022-11-01T05:54:19.566Z,68.48
2022-11-01T05:56:46.863Z,69.05
2022-11-01T05:59:14.181Z,68.60
2022-11-01T06:01:41.828Z,68.71
2022-11-01T06:04:09.114Z,69.26
2022-11-01T06:06:36.468Z,68.40
2022-11-01T06:09:03.794Z,68.86
2022-11-01T06:11:30.992Z,69.30
2022-11-01T06:13:59.105Z,68.63
2022-11-01T06:16:26.605Z,68.78
2022-11-01T06:18:54.093Z,69.50
2022-11-01T06:21:26.056Z,69.70
2022-11-01T06:23:56.494Z,68.19
2022-11-01T06:26:23.711Z,69.14
2022-11-01T06:28:51.157Z,68.85
2022-11-01T06:31:18.500Z,69.43
2022-11-01T06:33:48.998Z,69.47
2022-11-01T06:36:16.222Z,69.75
2022-11-01T06:38:43.552Z,69.23
2022-11-01T06:41:10.733Z,70.08
2022-11-01T06:43:37.988Z,70.22
2022-11-01T06:46:05.344Z,69.99
2022-11-01T06:48:32.664Z,70.66
2022-11-01T06:51:03.056Z,70.73
2022-11-01T06:53:30.532Z,69.82
2022-11-01T06:56:01.290Z,70.11
2022-11-01T06:58:28.591Z,69.81
2022-11-01T07:00:55.849Z,69.79
2022-11-01T07:03:23.202Z,69.14
2022-11-01T07:05:50.716Z,68.82
2022-11-01T07:08:18.190Z,68.86
2022-11-01T07:10:45.619Z,68.91
2022-11-01T07:13:14.048Z,68.30
2022-11-01T07:15:41.340Z,69.57
2022-11-01T07:18:09.282Z,68.70
2022-11-01T07:20:43.740Z,69.34
2022-11-01T07:23:16.267Z,68.54
2022-11-01T07:25:44.018Z,68.62
2022-11-01T07:28:11.654Z,69.71
2022-11-01T07:30:39.487Z,66.82
2022-11-01T07:33:07.146Z,67.63
2022-11-01T07:35:35.103Z,67.66
2022-11-01T07:38:05.065Z,66.43
2022-11-01T07:40:35.816Z,67.15
2022-11-01T07:43:04.609Z,67.20
2022-11-01T07:45:34.118Z,66.49
2022-11-01T07:48:03.606Z,66.39
2022-11-01T07:50:32.348Z,67.73
2022-11-01T07:53:03.826Z,67.96
2022-11-01T07:55:31.646Z,67.42
2022-11-01T07:57:59.212Z,68.25
2022-11-01T08:00:26.814Z,69.72
2022-11-01T08:03:04.164Z,67.51
2022-11-01T08:05:32.453Z,67.61
2022-11-01T08:08:00.532Z,68.10
2022-11-01T08:10:29.708Z,68.56
2022-11-01T08:13:07.265Z,68.16
2022-11-01T08:15:35.139Z,67.74
2022-11-01T08:18:02.965Z,67.61
2022-11-01T08:20:30.962Z,68.06
2022-11-01T08:22:58.305Z,68.20
2022-11-01T08:25:25.624Z,66.63
2022-11-01T08:27:52.891Z,66.14
2022-11-01T08:30:20.647Z,65.57
2022-11-01T08:32:47.905Z,65.32
2022-11-01T08:35:15.168Z,64.62
2022-11-01T08:37:50.348Z,65.34
2022-11-01T08:40:18.132Z,64.71
2022-11-01T08:42:45.349Z,64.45
2022-11-01T08:45:13.041Z,64.76
2022-11-01T08:47:41.162Z,64.65
2022-11-01T08:50:11.298Z,63.99
2022-11-01T08:52:39.539Z,64.06
2022-11-01T08:55:07.935Z,63.37
2022-11-01T08:57:35.182Z,63.93
2022-11-01T09:00:03.849Z,63.38
2022-11-01T09:02:31.262Z,62.81
2022-11-01T09:05:02.519Z,63.12
2022-11-01T09:07:29.804Z,63.90
2022-11-01T09:09:57.031Z,63.44
2022-11-01T09:12:24.905Z,62.86
2022-11-01T09:14:52.523Z,62.73
2022-11-01T09:17:19.750Z,62.92
2022-11-01T09:19:46.923Z,62.50
2022-11-01T09:22:14.394Z,62.39
2022-11-01T09:24:42.061Z,62.28
2022-11-01T09:27:09.684Z,62.24
2022-11-01T09:29:37.011Z,62.00
2022-11-01T09:32:04.724Z,60.65
2022-11-01T09:34:32.230Z,62.45
2022-11-01T09:36:59.458Z,62.31
2022-11-01T09:39:27.488Z,61.65
2022-11-01T09:42:07.927Z,62.67
2022-11-01T09:44:39.698Z,62.29
2022-11-01T09:47:13.482Z,62.13
2022-11-01T09:49:41.973Z,62.16
2022-11-01T09:52:16.219Z,62.20
2022-11-01T09:54:43.529Z,62.57
2022-11-01T09:57:35.339Z,61.71
2022-11-01T10:00:13.799Z,61.78
2022-11-01T10:03:16.477Z,61.84
2022-11-01T10:05:56.591Z,62.20
2022-11-01T10:08:38.140Z,61.66
2022-11-01T10:11:13.343Z,60.51
2022-11-01T10:14:05.466Z,59.80
2022-11-01T10:16:41.982Z,60.53
2022-11-01T10:19:15.580Z,61.83
2022-11-01T10:21:55.202Z,61.71
2022-11-01T10:24:50.457Z,61.44
2022-11-01T10:27:26.775Z,61.57
2022-11-01T10:30:12.601Z,62.05
2022-11-01T10:33:02.490Z,61.53
2022-11-01T10:35:30.943Z,60.37
2022-11-01T10:38:25.030Z,61.14
2022-11-01T10:40:59.839Z,60.46
2022-11-01T10:43:27.246Z,59.35
2022-11-01T10:45:56.070Z,60.32
2022-11-01T10:48:33.111Z,59.85
2022-11-01T10:51:03.712Z,59.36
2022-11-01T10:53:34.206Z,58.06
2022-11-01T10:56:08.934Z,59.28
2022-11-01T10:59:00.060Z,58.82
2022-11-01T11:01:30.584Z,60.07
2022-11-01T11:04:01.268Z,59.32
2022-11-01T11:06:28.694Z,59.16
2022-11-01T11:08:56.572Z,59.29
2022-11-01T11:11:32.138Z,60.59
2022-11-01T11:14:00.391Z,60.42
2022-11-01T11:16:48.234Z,58.50
2022-11-01T11:19:38.469Z,56.10
2022-11-01T11:22:06.544Z,58.36
2022-11-01T11:24:36.148Z,59.50
2022-11-01T11:27:05.032Z,59.37
2022-11-01T11:29:39.769Z,57.78
2022-11-01T11:32:15.084Z,58.75
2022-11-01T11:34:42.666Z,57.07
2022-11-01T11:37:19.082Z,58.74
2022-11-01T11:40:17.157Z,56.64
2022-11-01T11:42:45.946Z,57.81
2022-11-01T11:45:30.978Z,57.82
2022-11-01T11:48:18.923Z,57.39
2022-11-01T11:50:46.765Z,57.72
2022-11-01T11:53:20.288Z,58.04
2022-11-01T11:55:56.993Z,57.53
2022-11-01T11:58:36.966Z,58.51
2022-11-01T12:01:07.062Z,54.84
2022-11-01T12:03:38.466Z,57.62
2022-11-01T12:06:07.526Z,57.87
2022-11-01T12:08:45.333Z,57.36
2022-11-01T12:11:13.473Z,56.99
2022-11-01T12:13:43.836Z,55.88
2022-11-01T12:16:15.941Z,56.15
2022-11-01T12:19:30.029Z,54.41
2022-11-01T12:22:00.308Z,54.55
2022-11-01T12:24:28.617Z,54.83
2022-11-01T12:26:59.789Z,55.60
2022-11-01T12:29:32.980Z,55.93
2022-11-01T12:32:04.663Z,56.07
2022-11-01T12:34:39.875Z,55.73
2022-11-01T12:37:15.951Z,56.15
2022-11-01T12:40:03.642Z,53.95
2022-11-01T12:42:43.552Z,56.25
2022-11-01T12:45:19.640Z,55.69
2022-11-01T12:47:49.994Z,55.12
2022-11-01T12:50:20.143Z,56.09
2022-11-01T12:53:11.500Z,55.71
2022-11-01T12:55:40.532Z,55.25
2022-11-01T12:58:36.292Z,55.82
2022-11-01T13:01:34.655Z,56.17
2022-11-01T13:04:13.574Z,55.69
2022-11-01T13:06:49.824Z,56.70
2022-11-01T13:09:38.459Z,56.39
2022-11-01T13:12:15.221Z,55.88
2022-11-01T13:15:07.200Z,53.05
2022-11-01T13:17:45.928Z,55.14
2022-11-01T13:20:46.301Z,54.76
2022-11-01T13:23:50.471Z,55.50
2022-11-01T13:26:27.477Z,55.28
2022-11-01T13:32:20.811Z,55.18
2022-11-01T13:34:51.386Z,54.71
2022-11-01T13:37:47.137Z,54.37
2022-11-01T13:40:32.619Z,52.75
2022-11-01T13:43:05.521Z,53.70
2022-11-01T13:45:38.938Z,55.00
2022-11-01T13:48:14.984Z,54.58
2022-11-01T13:50:45.635Z,53.83
2022-11-01T13:53:12.809Z,54.00
2022-11-01T13:55:45.128Z,53.01
2022-11-01T13:58:19.559Z,54.46
2022-11-01T14:00:51.552Z,54.28
2022-11-01T14:03:23.110Z,54.01
2022-11-01T14:06:11.499Z,54.08
2022-11-01T14:08:43.775Z,52.94
2022-11-01T14:11:12.779Z,53.28
2022-11-01T14:13:45.593Z,54.18
2022-11-01T14:16:15.982Z,53.98
2022-11-01T14:19:02.652Z,54.17
2022-11-01T14:21:32.206Z,52.34
2022-11-01T14:24:01.655Z,52.29
2022-11-01T14:26:45.846Z,54.21
2022-11-01T14:29:13.182Z,53.96
2022-11-01T14:31:43.697Z,53.64
2022-11-01T14:34:32.853Z,54.45
2022-11-01T14:37:04.849Z,54.68
2022-11-01T14:39:39.580Z,54.11
2022-11-01T14:42:10.804Z,53.86
2022-11-01T14:44:46.795Z,53.80
2022-11-01T14:47:27.975Z,54.63
2022-11-01T14:49:56.908Z,54.97
2022-11-01T14:52:36.799Z,53.67
2022-11-01T14:55:17.045Z,53.50
2022-11-01T14:57:45.979Z,54.31
2022-11-01T15:00:28.673Z,53.38
2022-11-01T15:03:01.069Z,54.02
2022-11-01T15:05:28.637Z,54.17
2022-11-01T15:07:57.017Z,53.52
2022-11-01T15:10:24.505Z,53.56
2022-11-01T15:12:58.143Z,53.44
2022-11-01T15:15:29.024Z,51.61
2022-11-01T15:17:58.771Z,53.59
2022-11-01T15:20:30.689Z,52.60
2022-11-01T15:22:59.147Z,54.55
2022-11-01T15:25:26.758Z,54.19
2022-11-01T15:27:55.620Z,54.00
2022-11-01T15:30:30.992Z,54.37
2022-11-01T15:33:24.114Z,53.79
2022-11-01T15:35:59.478Z,54.35
2022-11-01T15:38:27.902Z,54.19
2022-11-01T15:40:55.230Z,54.58
2022-11-01T15:43:24.834Z,54.49
2022-11-01T15:45:54.805Z,55.16
2022-11-01T15:48:32.821Z,55.48
2022-11-01T15:51:02.403Z,55.99
2022-11-01T15:53:31.930Z,56.19
2022-11-01T15:56:11.306Z,56.60
2022-11-01T15:58:41.579Z,56.25
2022-11-01T16:01:13.517Z,56.82
2022-11-01T16:03:46.768Z,56.24
2022-11-01T16:06:18.571Z,55.94
2022-11-01T16:09:01.161Z,57.34
2022-11-01T16:11:31.402Z,57.40
2022-11-01T16:14:02.667Z,57.92
2022-11-01T16:19:51.492Z,58.45
2022-11-01T16:22:40.677Z,57.59
2022-11-01T16:25:10.117Z,57.66
2022-11-01T16:28:27.209Z,57.76
2022-11-01T16:30:56.344Z,58.16
2022-11-01T16:36:20.455Z,58.65
2022-11-01T16:38:52.009Z,58.95
2022-11-01T16:41:24.278Z,57.85
2022-11-01T16:43:56.566Z,57.84
2022-11-01T16:46:25.712Z,58.11
2022-11-01T16:48:58.501Z,57.80
2022-11-01T16:51:28.576Z,58.50
2022-11-01T16:53:56.999Z,58.35
2022-11-01T16:56:53.822Z,58.13
2022-11-01T16:59:29.903Z,58.90
2022-11-01T17:01:58.581Z,58.44
2022-11-01T17:04:27.009Z,58.48
2022-11-01T17:06:55.636Z,57.19
2022-11-01T17:09:22.862Z,58.50
2022-11-01T17:11:51.732Z,58.02
2022-11-01T17:14:20.818Z,58.77
2022-11-01T17:16:50.829Z,57.66
2022-11-01T17:19:38.826Z,57.86
2022-11-01T17:22:11.654Z,58.95
2022-11-01T17:24:39.611Z,58.21
2022-11-01T17:27:07.355Z,58.15
2022-11-01T17:29:34.635Z,57.14
2022-11-01T17:32:02.941Z,57.17
2022-11-01T17:34:30.551Z,58.49
2022-11-01T17:36:58.061Z,58.38
2022-11-01T17:39:29.072Z,58.60
2022-11-01T17:41:58.278Z,57.95
2022-11-01T17:44:25.494Z,57.53
2022-11-01T17:46:52.758Z,58.29
2022-11-01T17:49:23.561Z,58.84
2022-11-01T17:51:54.681Z,58.69
2022-11-01T17:54:23.525Z,59.60
2022-11-01T17:56:51.326Z,58.48
2022-11-01T17:59:19.073Z,59.75
2022-11-01T18:01:47.136Z,59.13
2022-11-01T18:04:14.607Z,61.24
2022-11-01T18:06:42.547Z,60.63
2022-11-01T18:09:24.240Z,61.47
2022-11-01T18:12:05.673Z,60.17
2022-11-01T18:15:08.561Z,60.41
2022-11-01T18:17:55.283Z,61.17
2022-11-01T18:20:45.998Z,60.29
2022-11-01T18:23:15.191Z,61.56
2022-11-01T18:25:45.881Z,60.45
2022-11-01T18:28:26.483Z,60.26
2022-11-01T18:30:57.331Z,60.24
2022-11-01T18:33:41.793Z,62.31
2022-11-01T18:36:18.195Z,62.25
2022-11-01T18:38:56.188Z,61.73
2022-11-01T18:41:23.429Z,61.97
2022-11-01T18:43:54.196Z,62.46
2022-11-01T18:46:26.419Z,61.49
2022-11-01T18:49:00.149Z,62.54
2022-11-01T18:51:32.834Z,61.07
2022-11-01T18:54:09.412Z,61.70
2022-11-01T18:56:40.590Z,62.00
2022-11-01T18:59:16.627Z,60.89
2022-11-01T19:01:44.108Z,61.88
2022-11-01T19:04:14.988Z,60.90
2022-11-01T19:06:42.319Z,61.32
2022-11-01T19:09:21.203Z,60.58
2022-11-01T19:12:11.536Z,61.04
2022-11-01T19:14:40.108Z,61.07
2022-11-01T19:17:28.191Z,60.78
2022-11-01T19:19:57.346Z,60.78
2022-11-01T19:22:37.486Z,60.73
2022-11-01T19:25:16.825Z,61.68
2022-11-01T19:27:44.315Z,61.33
2022-11-01T19:30:25.073Z,60.61
2022-11-01T19:32:54.628Z,61.70
2022-11-01T19:35:22.866Z,61.36
2022-11-01T19:37:53.166Z,62.36
2022-11-01T19:40:34.267Z,60.99
2022-11-01T19:43:10.266Z,60.89
2022-11-01T19:45:43.675Z,60.37
2022-11-01T19:48:11.833Z,61.79
2022-11-01T19:50:46.109Z,60.54
2022-11-01T19:53:22.346Z,60.14
2022-11-01T19:55:55.708Z,61.68
2022-11-01T19:58:26.721Z,62.09
2022-11-01T20:01:09.247Z,61.67
2022-11-01T20:03:40.185Z,61.36
2022-11-01T20:06:17.051Z,60.79
2022-11-01T20:08:45.440Z,62.13
2022-11-01T20:11:13.338Z,62.81
2022-11-01T20:13:40.701Z,61.97
2022-11-01T20:16:08.446Z,62.60
2022-11-01T20:18:35.668Z,62.33
2022-11-01T20:21:06.112Z,61.09
2022-11-01T20:23:33.871Z,61.40
2022-11-01T20:26:01.950Z,61.85
2022-11-01T20:28:29.337Z,61.58
2022-11-01T20:30:56.668Z,59.85
2022-11-01T20:33:24.590Z,62.78
2022-11-01T20:38:58.475Z,62.03
2022-11-01T20:41:26.361Z,62.29
2022-11-01T20:43:53.682Z,62.34
2022-11-01T20:46:21.023Z,61.14
2022-11-01T20:48:48.482Z,61.31
2022-11-01T20:51:15.783Z,60.56
2022-11-01T20:53:43.031Z,62.42
2022-11-01T20:56:10.395Z,60.87
2022-11-01T20:58:40.571Z,62.00
2022-11-01T21:01:15.901Z,60.65
2022-11-01T21:03:43.458Z,61.93
2022-11-01T21:06:15.561Z,62.04
2022-11-01T21:08:44.956Z,59.94
2022-11-01T21:11:22.744Z,62.98
2022-11-01T21:13:51.790Z,62.95
2022-11-01T21:16:24.682Z,62.59
2022-11-01T21:19:00.771Z,64.21
2022-11-01T21:21:32.400Z,63.19
2022-11-01T21:24:01.220Z,62.55
2022-11-01T21:26:33.763Z,61.50
2022-11-01T21:29:25.334Z,61.65
2022-11-01T21:31:52.554Z,63.23
2022-11-01T21:34:30.149Z,63.87
2022-11-01T21:36:58.857Z,62.23
2022-11-01T21:39:32.778Z,63.79
2022-11-01T21:42:02.907Z,63.93
2022-11-01T21:44:39.891Z,64.08
2022-11-01T21:47:12.003Z,64.48
2022-11-01T21:49:39.352Z,64.12
2022-11-01T21:52:08.616Z,63.29
2022-11-01T21:54:37.667Z,64.14
2022-11-01T21:57:07.014Z,63.59
2022-11-01T21:59:34.787Z,65.13
2022-11-01T22:02:02.866Z,67.73
2022-11-01T22:04:31.310Z,67.66
2022-11-01T22:07:00.032Z,68.36
2022-11-01T22:09:27.838Z,67.71
2022-11-01T22:11:55.196Z,68.67
2022-11-01T22:14:23.013Z,71.49
2022-11-01T22:16:50.321Z,68.65
2022-11-01T22:19:17.728Z,67.05
2022-11-01T22:24:13.120Z,68.45
2022-11-01T22:26:40.418Z,68.41
2022-11-01T22:29:07.610Z,67.70
2022-11-01T22:31:34.911Z,67.93
2022-11-01T22:34:02.264Z,68.45
2022-11-01T22:36:30.993Z,66.25
2022-11-01T22:38:59.772Z,68.10
2022-11-01T22:41:33.180Z,67.73
2022-11-01T22:44:13.677Z,66.81
2022-11-01T22:46:53.588Z,68.53
2022-11-01T22:49:24.474Z,68.34
2022-11-01T22:52:00.230Z,67.28
2022-11-01T22:54:33.374Z,68.31
2022-11-01T22:57:11.219Z,68.03
2022-11-01T22:59:48.393Z,67.01
2022-11-01T23:02:24.883Z,63.97
2022-11-01T23:05:19.361Z,66.67
2022-11-01T23:07:51.767Z,66.89
2022-11-01T23:10:25.141Z,65.51
2022-11-01T23:13:15.711Z,68.13
2022-11-01T23:15:43.333Z,70.26
2022-11-01T23:18:20.226Z,68.48
2022-11-01T23:20:56.877Z,67.21
2022-11-01T23:23:24.454Z,66.87
2022-11-01T23:25:53.115Z,66.16
2022-11-01T23:28:20.388Z,65.71
2022-11-01T23:30:48.655Z,66.28
2022-11-01T23:33:18.149Z,66.18
2022-11-01T23:35:53.649Z,65.61
2022-11-01T23:38:34.299Z,67.01
2022-11-01T23:41:01.997Z,65.87
2022-11-01T23:43:39.366Z,66.42
2022-11-01T23:46:07.694Z,67.13
2022-11-01T23:48:41.476Z,67.30
2022-11-01T23:51:20.317Z,67.71
2022-11-01T23:53:49.466Z,68.24
2022-11-01T23:56:18.920Z,67.37
2022-11-01T23:58:53.324Z,67.53
